createdAt,value
2017-08-31T00:02:21.013Z,98.40
2017-08-31T00:04:48.651Z,98.30
2017-08-31T00:07:16.245Z,98.60
2017-08-31T00:09:43.840Z,98.50
2017-08-31T00:12:11.462Z,98.50
2017-08-31T00:14:39.047Z,98.50
2017-08-31T00:17:06.649Z,98.60
2017-08-31T00:19:34.267Z,98.60
2017-08-31T00:22:01.902Z,98.70
2017-08-31T00:24:29.486Z,98.60
2017-08-31T00:26:57.104Z,98.70
2017-08-31T00:29:24.679Z,99.00
2017-08-31T00:31:52.240Z,98.70
2017-08-31T00:34:19.857Z,98.70
2017-08-31T00:36:47.433Z,98.70
2017-08-31T00:39:15.029Z,98.70
2017-08-31T00:41:42.642Z,98.30
2017-08-31T00:44:10.245Z,98.40
2017-08-31T00:46:37.838Z,98.20
2017-08-31T00:49:05.469Z,98.60
2017-08-31T00:51:33.046Z,98.30
2017-08-31T00:54:00.605Z,98.10
2017-08-31T00:56:28.235Z,98.30
2017-08-31T00:58:55.820Z,98.30
2017-08-31T01:01:23.379Z,98.10
2017-08-31T01:03:50.988Z,98.30
2017-08-31T01:06:19.327Z,98.20
2017-08-31T01:08:46.912Z,98.30
2017-08-31T01:11:14.521Z,98.20
2017-08-31T01:13:42.080Z,98.50
2017-08-31T01:16:09.670Z,98.50
2017-08-31T01:18:37.278Z,98.50
2017-08-31T01:21:04.867Z,98.80
2017-08-31T01:23:32.480Z,98.70
2017-08-31T01:26:00.106Z,98.70
2017-08-31T01:28:27.693Z,98.80
2017-08-31T01:30:55.331Z,99.00
2017-08-31T01:33:22.954Z,98.90
2017-08-31T01:35:50.549Z,99.00
2017-08-31T01:38:18.186Z,98.80
2017-08-31T01:40:45.804Z,98.60
2017-08-31T01:43:13.433Z,98.60
2017-08-31T01:45:41.069Z,98.50
2017-08-31T01:48:08.665Z,98.70
2017-08-31T01:50:36.271Z,98.60
2017-08-31T01:53:03.851Z,98.60
2017-08-31T01:55:31.471Z,98.00
2017-08-31T01:57:59.126Z,98.30
2017-08-31T02:00:26.751Z,98.00
2017-08-31T02:02:54.362Z,97.90
2017-08-31T02:05:21.939Z,97.50
2017-08-31T02:07:49.527Z,97.70
2017-08-31T02:10:17.113Z,97.90
2017-08-31T02:12:44.677Z,97.90
2017-08-31T02:15:12.267Z,98.30
2017-08-31T02:17:39.909Z,98.30
2017-08-31T02:20:07.506Z,98.50
2017-08-31T02:22:35.098Z,98.00
2017-08-31T02:25:02.715Z,98.10
2017-08-31T02:27:30.296Z,98.10
2017-08-31T02:29:57.902Z,98.20
2017-08-31T02:32:25.525Z,98.30
2017-08-31T02:34:53.103Z,98.60
2017-08-31T02:37:20.692Z,98.20
2017-08-31T02:39:48.317Z,98.60
2017-08-31T02:42:15.961Z,98.20
2017-08-31T02:44:43.526Z,98.20
2017-08-31T02:47:11.114Z,97.80
2017-08-31T02:49:38.713Z,98.00
2017-08-31T02:52:06.310Z,97.80
2017-08-31T02:54:33.910Z,98.10
2017-08-31T02:57:01.511Z,97.90
2017-08-31T02:59:29.077Z,97.70
2017-08-31T03:01:56.701Z,98.00
2017-08-31T03:04:24.299Z,98.00
2017-08-31T03:06:51.904Z,97.90
2017-08-31T03:09:19.472Z,98.10
2017-08-31T03:11:47.072Z,97.90
2017-08-31T03:14:14.670Z,98.10
2017-08-31T03:16:42.242Z,98.30
2017-08-31T03:19:09.845Z,98.40
2017-08-31T03:21:37.447Z,98.20
2017-08-31T03:24:05.025Z,98.10
2017-08-31T03:26:32.614Z,98.20
2017-08-31T03:29:00.213Z,98.20
2017-08-31T03:31:27.820Z,97.90
2017-08-31T03:33:55.373Z,97.70
2017-08-31T03:36:22.966Z,97.90
2017-08-31T03:38:50.571Z,98.20
2017-08-31T03:41:18.155Z,98.40
2017-08-31T03:43:45.750Z,98.10
2017-08-31T03:46:13.325Z,98.00
2017-08-31T03:48:40.926Z,98.10
2017-08-31T03:51:08.510Z,98.10
2017-08-31T03:53:36.111Z,98.40
2017-08-31T03:56:03.722Z,97.90
2017-08-31T03:58:31.302Z,98.20
2017-08-31T04:00:58.874Z,98.20
2017-08-31T04:03:26.457Z,98.50
2017-08-31T04:05:54.012Z,98.30
2017-08-31T04:08:21.639Z,98.30
2017-08-31T04:10:49.219Z,98.40
2017-08-31T04:13:16.818Z,98.20
2017-08-31T04:15:44.426Z,98.50
2017-08-31T04:18:12.097Z,98.00
2017-08-31T04:20:39.709Z,98.00
2017-08-31T04:23:07.292Z,97.70
2017-08-31T04:25:34.877Z,98.20
2017-08-31T04:28:02.471Z,98.00
2017-08-31T04:30:30.054Z,98.20
2017-08-31T04:32:57.653Z,98.70
2017-08-31T04:35:25.212Z,98.70
2017-08-31T04:37:52.900Z,98.60
2017-08-31T04:40:20.506Z,98.40
2017-08-31T04:42:48.876Z,98.50
2017-08-31T04:45:16.859Z,98.50
2017-08-31T04:47:44.430Z,99.00
2017-08-31T04:50:12.806Z,98.30
2017-08-31T04:52:40.471Z,98.30
2017-08-31T04:55:08.801Z,98.40
2017-08-31T04:57:36.385Z,98.40
2017-08-31T05:00:03.999Z,98.30
2017-08-31T05:02:31.602Z,98.40
2017-08-31T05:04:59.202Z,98.50
2017-08-31T05:07:26.801Z,98.30
2017-08-31T05:09:54.433Z,98.10
2017-08-31T05:12:22.063Z,98.10
2017-08-31T05:14:49.640Z,98.20
2017-08-31T05:17:17.247Z,98.20
2017-08-31T05:19:44.850Z,97.90
2017-08-31T05:22:12.508Z,97.80
2017-08-31T05:24:40.113Z,97.80
2017-08-31T05:27:07.690Z,97.90
2017-08-31T05:29:35.303Z,97.70
2017-08-31T05:32:02.932Z,97.90
2017-08-31T05:34:30.559Z,97.80
2017-08-31T05:36:58.148Z,97.50
2017-08-31T05:39:25.742Z,97.80
2017-08-31T05:41:53.346Z,98.10
2017-08-31T05:44:20.942Z,97.90
2017-08-31T05:46:48.528Z,97.90
2017-08-31T05:49:16.120Z,98.20
2017-08-31T05:51:43.711Z,98.30
2017-08-31T05:54:11.339Z,98.20
2017-08-31T05:56:38.898Z,98.20
2017-08-31T05:59:06.700Z,98.30
2017-08-31T06:01:34.314Z,98.30
2017-08-31T06:04:01.884Z,98.30
2017-08-31T06:06:30.450Z,98.10
2017-08-31T06:08:59.056Z,98.30
2017-08-31T06:11:28.859Z,98.20
2017-08-31T06:13:56.446Z,98.40
2017-08-31T06:16:24.024Z,98.10
2017-08-31T06:18:53.056Z,98.10
2017-08-31T06:21:20.628Z,98.20
2017-08-31T06:23:49.225Z,98.50
2017-08-31T06:26:16.802Z,98.10
2017-08-31T06:28:45.570Z,98.00
2017-08-31T06:31:13.255Z,98.50
2017-08-31T06:33:41.942Z,98.50
2017-08-31T06:36:09.591Z,98.40
2017-08-31T06:38:37.923Z,98.60
2017-08-31T06:41:05.492Z,98.50
2017-08-31T06:43:33.077Z,98.60
2017-08-31T06:46:01.428Z,98.30
2017-08-31T06:48:29.041Z,98.30
2017-08-31T06:50:57.619Z,98.30
2017-08-31T06:53:25.200Z,98.30
2017-08-31T06:55:52.795Z,98.30
2017-08-31T06:58:21.449Z,98.20
2017-08-31T07:00:49.052Z,98.10
2017-08-31T07:03:16.636Z,98.30
2017-08-31T07:05:44.219Z,98.40
2017-08-31T07:08:11.866Z,98.30
2017-08-31T07:10:39.460Z,98.20
2017-08-31T07:13:08.288Z,98.00
2017-08-31T07:15:36.732Z,97.60
2017-08-31T07:18:04.323Z,97.60
2017-08-31T07:20:31.933Z,97.40
2017-08-31T07:22:59.510Z,97.50
2017-08-31T07:25:27.118Z,97.60
2017-08-31T07:27:55.502Z,97.40
2017-08-31T07:30:23.108Z,97.40
2017-08-31T07:32:50.702Z,98.10
2017-08-31T07:35:18.294Z,97.50
2017-08-31T07:37:46.689Z,97.40
2017-08-31T07:40:14.266Z,97.40
2017-08-31T07:42:41.829Z,97.40
2017-08-31T07:45:09.440Z,97.10
2017-08-31T07:47:37.016Z,97.40
2017-08-31T07:50:04.612Z,97.10
2017-08-31T07:52:32.216Z,97.30
2017-08-31T07:54:59.817Z,97.00
2017-08-31T07:57:27.376Z,97.30
2017-08-31T07:59:54.968Z,97.30
2017-08-31T08:02:22.567Z,96.80
2017-08-31T08:04:50.164Z,96.90
2017-08-31T08:07:17.809Z,97.10
2017-08-31T08:09:45.407Z,97.20
2017-08-31T08:12:13.000Z,97.30
2017-08-31T08:14:40.608Z,97.20
2017-08-31T08:17:08.236Z,97.40
2017-08-31T08:19:35.940Z,96.50
2017-08-31T08:22:03.567Z,96.70
2017-08-31T08:24:31.163Z,96.70
2017-08-31T08:26:58.787Z,96.80
2017-08-31T08:29:26.751Z,97.10
2017-08-31T08:31:54.367Z,96.40
2017-08-31T08:34:21.940Z,96.40
2017-08-31T08:36:49.561Z,96.60
2017-08-31T08:39:17.229Z,96.30
2017-08-31T08:41:44.801Z,96.70
2017-08-31T08:44:12.399Z,96.90
2017-08-31T08:46:40.005Z,96.70
2017-08-31T08:49:07.598Z,96.50
2017-08-31T08:51:35.225Z,96.20
2017-08-31T08:54:02.802Z,96.60
2017-08-31T08:56:30.374Z,96.50
2017-08-31T08:58:58.818Z,96.20
2017-08-31T09:01:26.391Z,96.20
2017-08-31T09:03:53.965Z,96.70
2017-08-31T09:06:21.540Z,96.70
2017-08-31T09:08:49.096Z,97.10
2017-08-31T09:11:16.671Z,96.80
2017-08-31T09:13:44.268Z,96.60
2017-08-31T09:16:11.849Z,96.50
2017-08-31T09:18:39.428Z,96.30
2017-08-31T09:21:07.033Z,96.00
2017-08-31T09:23:34.625Z,96.50
2017-08-31T09:26:02.214Z,96.50
2017-08-31T09:28:29.811Z,96.60
2017-08-31T09:30:57.375Z,97.10
2017-08-31T09:33:24.932Z,97.00
2017-08-31T09:35:52.517Z,96.90
2017-08-31T09:38:20.110Z,96.80
2017-08-31T09:40:47.683Z,97.00
2017-08-31T09:43:15.272Z,97.00
2017-08-31T09:45:42.840Z,97.50
2017-08-31T09:48:10.431Z,97.00
2017-08-31T09:50:38.027Z,97.10
2017-08-31T09:53:05.608Z,98.00
2017-08-31T09:55:33.191Z,97.90
2017-08-31T09:58:00.804Z,97.00
2017-08-31T10:00:28.404Z,96.70
2017-08-31T10:02:55.965Z,97.10
2017-08-31T10:05:23.581Z,96.80
2017-08-31T10:07:51.157Z,97.30
2017-08-31T10:10:18.715Z,97.00
2017-08-31T10:12:46.334Z,96.90
2017-08-31T10:15:13.929Z,96.90
2017-08-31T10:17:41.519Z,96.60
2017-08-31T10:20:09.106Z,96.00
2017-08-31T10:22:36.683Z,96.50
2017-08-31T10:25:04.259Z,96.40
2017-08-31T10:27:31.867Z,96.10
2017-08-31T10:29:59.461Z,96.20
2017-08-31T10:32:27.048Z,96.00
2017-08-31T10:34:54.659Z,96.10
2017-08-31T10:37:22.222Z,95.40
2017-08-31T10:39:49.795Z,94.80
2017-08-31T10:42:17.382Z,95.10
2017-08-31T10:44:44.957Z,94.00
2017-08-31T10:47:13.282Z,94.50
2017-08-31T10:49:40.896Z,94.50
2017-08-31T10:52:08.479Z,94.30
2017-08-31T10:54:36.059Z,95.10
2017-08-31T10:57:03.655Z,96.00
2017-08-31T10:59:31.260Z,95.00
2017-08-31T11:01:58.827Z,93.00
2017-08-31T11:04:26.401Z,93.50
2017-08-31T11:06:53.965Z,92.80
2017-08-31T11:09:21.549Z,91.80
2017-08-31T11:11:49.151Z,92.70
2017-08-31T11:14:16.726Z,92.60
2017-08-31T11:16:44.313Z,93.00
2017-08-31T11:19:11.918Z,92.70
2017-08-31T11:21:39.512Z,92.40
2017-08-31T11:24:07.128Z,92.10
2017-08-31T11:26:34.724Z,93.00
2017-08-31T11:29:02.401Z,92.90
2017-08-31T11:31:30.012Z,92.60
2017-08-31T11:33:57.647Z,91.40
2017-08-31T11:36:25.305Z,91.50
2017-08-31T11:38:52.770Z,92.20
2017-08-31T11:41:21.129Z,91.50
2017-08-31T11:43:48.709Z,91.20
2017-08-31T11:46:16.375Z,92.00
2017-08-31T11:48:43.960Z,89.20
2017-08-31T11:51:11.529Z,89.00
2017-08-31T11:53:39.106Z,90.70
2017-08-31T11:56:06.670Z,92.20
2017-08-31T11:58:34.268Z,92.30
2017-08-31T12:01:01.853Z,92.70
2017-08-31T12:03:29.419Z,92.10
2017-08-31T12:05:57.020Z,91.40
2017-08-31T12:08:24.606Z,91.80
2017-08-31T12:10:52.211Z,91.20
2017-08-31T12:13:19.900Z,91.20
2017-08-31T12:15:47.485Z,91.10
2017-08-31T12:18:15.110Z,89.90
2017-08-31T12:20:42.700Z,89.80
2017-08-31T12:23:10.326Z,90.70
2017-08-31T12:25:37.921Z,90.50
2017-08-31T12:28:05.499Z,89.00
2017-08-31T12:30:33.121Z,90.40
2017-08-31T12:33:00.685Z,90.50
2017-08-31T12:35:28.267Z,90.20
2017-08-31T12:37:55.856Z,90.30
2017-08-31T12:40:23.404Z,90.80
2017-08-31T12:42:50.966Z,90.10
2017-08-31T12:45:18.567Z,90.70
2017-08-31T12:47:46.121Z,90.10
2017-08-31T12:50:13.693Z,89.20
2017-08-31T12:52:41.268Z,87.40
2017-08-31T12:55:08.860Z,87.20
2017-08-31T12:57:36.447Z,87.70
2017-08-31T13:00:04.041Z,86.90
2017-08-31T13:02:31.611Z,84.70
2017-08-31T13:04:59.180Z,84.80
2017-08-31T13:07:27.626Z,82.90
2017-08-31T13:09:55.199Z,84.20
2017-08-31T13:12:22.789Z,84.20
2017-08-31T13:14:50.379Z,83.70
2017-08-31T13:17:17.940Z,84.00
2017-08-31T13:19:45.505Z,83.70
2017-08-31T13:22:13.091Z,83.00
2017-08-31T13:24:40.674Z,82.70
2017-08-31T13:27:08.255Z,83.70
2017-08-31T13:29:35.832Z,85.00
2017-08-31T13:32:03.400Z,85.10
2017-08-31T13:34:30.983Z,83.70
2017-08-31T13:36:58.572Z,83.50
2017-08-31T13:39:26.124Z,82.50
2017-08-31T13:41:53.881Z,81.70
2017-08-31T13:44:21.486Z,79.50
2017-08-31T13:46:50.121Z,83.80
2017-08-31T13:49:17.755Z,83.70
2017-08-31T13:51:45.346Z,83.10
2017-08-31T13:54:12.914Z,83.10
2017-08-31T13:56:40.485Z,81.00
2017-08-31T13:59:08.052Z,81.00
2017-08-31T14:01:35.665Z,81.60
2017-08-31T14:04:03.259Z,80.60
2017-08-31T14:06:30.814Z,81.90
2017-08-31T14:08:58.398Z,80.90
2017-08-31T14:11:25.964Z,78.70
2017-08-31T14:13:53.548Z,76.10
2017-08-31T14:16:21.866Z,78.10
2017-08-31T14:18:49.440Z,78.10
2017-08-31T14:21:17.028Z,78.90
2017-08-31T14:23:44.608Z,75.00
2017-08-31T14:26:12.193Z,76.00
2017-08-31T14:28:39.762Z,76.30
2017-08-31T14:31:07.340Z,75.60
2017-08-31T14:33:35.691Z,74.10
2017-08-31T14:36:03.244Z,74.10
2017-08-31T14:38:30.867Z,74.00
2017-08-31T14:40:58.527Z,74.30
2017-08-31T14:43:26.097Z,75.40
2017-08-31T14:45:53.679Z,75.00
2017-08-31T14:48:21.244Z,76.40
2017-08-31T14:50:48.864Z,76.60
2017-08-31T14:53:16.437Z,73.50
2017-08-31T14:55:44.004Z,74.10
2017-08-31T14:58:11.599Z,75.80
2017-08-31T15:00:39.236Z,77.60
2017-08-31T15:03:06.852Z,74.70
2017-08-31T15:05:34.418Z,75.90
2017-08-31T15:08:01.990Z,74.70
2017-08-31T15:10:29.676Z,75.80
2017-08-31T15:12:57.257Z,76.30
2017-08-31T15:15:27.981Z,76.60
2017-08-31T15:17:55.565Z,76.50
2017-08-31T15:20:23.179Z,73.50
2017-08-31T15:22:50.753Z,76.60
2017-08-31T15:25:18.337Z,73.00
2017-08-31T15:27:45.936Z,74.00
2017-08-31T15:30:13.507Z,74.60
2017-08-31T15:32:41.061Z,74.10
2017-08-31T15:35:08.655Z,75.90
2017-08-31T15:37:36.214Z,76.10
2017-08-31T15:40:03.801Z,75.30
2017-08-31T15:42:31.354Z,75.30
2017-08-31T15:44:58.922Z,75.80
2017-08-31T15:47:26.502Z,76.30
2017-08-31T15:49:54.252Z,76.40
2017-08-31T15:52:21.867Z,76.30
2017-08-31T15:54:49.461Z,77.00
2017-08-31T15:57:17.037Z,76.80
2017-08-31T15:59:44.622Z,73.60
2017-08-31T16:02:12.177Z,75.20
2017-08-31T16:04:39.827Z,75.60
2017-08-31T16:07:07.418Z,74.00
2017-08-31T16:09:35.013Z,75.40
2017-08-31T16:12:02.622Z,76.40
2017-08-31T16:14:30.225Z,76.90
2017-08-31T16:16:57.832Z,73.60
2017-08-31T16:19:25.417Z,75.30
2017-08-31T16:21:52.973Z,76.60
2017-08-31T16:24:20.577Z,75.00
2017-08-31T16:26:48.155Z,75.10
2017-08-31T16:29:15.742Z,76.20
2017-08-31T16:31:43.317Z,77.00
2017-08-31T16:34:10.901Z,75.50
2017-08-31T16:36:38.506Z,76.10
2017-08-31T16:39:06.083Z,77.00
2017-08-31T16:41:33.686Z,76.60
2017-08-31T16:44:01.258Z,76.00
2017-08-31T16:46:28.836Z,78.40
2017-08-31T16:48:56.458Z,76.20
2017-08-31T16:51:24.016Z,76.60
2017-08-31T16:53:51.619Z,76.50
2017-08-31T16:56:19.198Z,78.00
2017-08-31T16:58:46.775Z,77.70
2017-08-31T17:01:14.358Z,78.50
2017-08-31T17:03:41.923Z,75.50
2017-08-31T17:06:10.101Z,77.30
2017-08-31T17:08:37.649Z,77.50
2017-08-31T17:11:05.201Z,77.60
2017-08-31T17:13:32.772Z,79.80
2017-08-31T17:16:00.343Z,79.50
2017-08-31T17:18:27.974Z,79.30
2017-08-31T17:20:56.295Z,80.00
2017-08-31T17:23:23.891Z,79.80
2017-08-31T17:25:51.515Z,81.00
2017-08-31T17:28:19.084Z,82.00
2017-08-31T17:30:46.694Z,78.90
2017-08-31T17:33:14.285Z,77.90
2017-08-31T17:35:41.874Z,81.40
2017-08-31T17:38:09.547Z,80.10
2017-08-31T17:40:37.301Z,80.40
2017-08-31T17:43:04.908Z,82.40
2017-08-31T17:45:32.616Z,81.20
2017-08-31T17:48:00.246Z,82.30
2017-08-31T17:50:27.869Z,83.10
2017-08-31T17:52:55.461Z,84.70
2017-08-31T17:55:23.136Z,86.00
2017-08-31T17:57:50.733Z,86.10
2017-08-31T18:00:18.419Z,87.50
2017-08-31T18:02:46.037Z,87.20
2017-08-31T18:05:13.612Z,87.90
2017-08-31T18:07:41.226Z,88.00
2017-08-31T18:10:08.807Z,88.70
2017-08-31T18:12:37.130Z,89.10
2017-08-31T18:15:04.745Z,89.10
2017-08-31T18:17:32.325Z,89.70
2017-08-31T18:19:59.916Z,90.20
2017-08-31T18:22:27.505Z,90.40
2017-08-31T18:24:55.082Z,90.50
2017-08-31T18:27:22.683Z,90.60
2017-08-31T18:29:50.255Z,90.80
2017-08-31T18:32:17.851Z,91.00
2017-08-31T18:34:45.439Z,90.90
2017-08-31T18:37:13.004Z,91.10
2017-08-31T18:39:40.616Z,91.10
2017-08-31T18:42:08.226Z,91.30
2017-08-31T18:44:36.620Z,90.90
2017-08-31T18:47:04.221Z,90.90
2017-08-31T18:49:31.779Z,90.80
2017-08-31T18:51:59.384Z,90.70
2017-08-31T18:54:26.959Z,91.00
2017-08-31T18:56:54.563Z,91.40
2017-08-31T18:59:22.141Z,91.60
2017-08-31T19:01:49.736Z,91.80
2017-08-31T19:04:17.372Z,91.80
2017-08-31T19:06:44.944Z,92.10
2017-08-31T19:09:12.555Z,92.50
2017-08-31T19:11:40.125Z,92.80
2017-08-31T19:14:07.703Z,92.80
2017-08-31T19:16:35.312Z,92.90
2017-08-31T19:19:02.891Z,93.10
2017-08-31T19:21:30.523Z,92.90
2017-08-31T19:23:58.136Z,93.00
2017-08-31T19:26:25.741Z,93.30
2017-08-31T19:28:53.361Z,93.20
2017-08-31T19:31:20.944Z,93.10
2017-08-31T19:33:48.525Z,93.10
2017-08-31T19:36:16.135Z,93.10
2017-08-31T19:38:43.724Z,93.30
2017-08-31T19:41:11.326Z,93.30
2017-08-31T19:43:38.942Z,93.60
2017-08-31T19:46:06.518Z,93.80
2017-08-31T19:48:34.111Z,93.90
2017-08-31T19:51:01.788Z,94.00
2017-08-31T19:53:29.362Z,94.20
2017-08-31T19:55:56.947Z,94.30
2017-08-31T19:58:24.562Z,94.40
2017-08-31T20:00:52.158Z,94.80
2017-08-31T20:03:19.751Z,95.00
2017-08-31T20:05:47.361Z,95.10
2017-08-31T20:08:14.946Z,95.10
2017-08-31T20:10:42.541Z,95.10
2017-08-31T20:13:10.175Z,95.10
2017-08-31T20:15:37.763Z,95.00
2017-08-31T20:18:05.361Z,94.80
2017-08-31T20:20:32.983Z,94.50
2017-08-31T20:23:00.549Z,94.50
2017-08-31T20:25:28.142Z,94.40
2017-08-31T20:27:55.767Z,94.30
2017-08-31T20:30:23.348Z,94.40
2017-08-31T20:32:50.914Z,94.60
2017-08-31T20:35:18.551Z,94.80
2017-08-31T20:37:46.125Z,94.90
2017-08-31T20:40:13.702Z,94.80
2017-08-31T20:42:41.325Z,94.80
2017-08-31T20:45:08.928Z,95.10
2017-08-31T20:47:36.508Z,95.10
2017-08-31T20:50:04.123Z,95.10
2017-08-31T20:52:31.731Z,95.00
2017-08-31T20:54:59.303Z,95.10
2017-08-31T20:57:26.928Z,95.20
2017-08-31T20:59:54.526Z,95.30
2017-08-31T21:02:22.093Z,95.50
2017-08-31T21:04:49.685Z,95.40
2017-08-31T21:07:17.294Z,95.50
2017-08-31T21:09:44.890Z,95.70
2017-08-31T21:12:12.506Z,95.70
2017-08-31T21:14:40.102Z,95.70
2017-08-31T21:17:07.733Z,95.80
2017-08-31T21:19:35.312Z,95.90
2017-08-31T21:22:02.894Z,96.00
2017-08-31T21:24:30.488Z,96.00
2017-08-31T21:26:58.100Z,95.90
2017-08-31T21:29:25.729Z,95.60
2017-08-31T21:31:53.322Z,95.90
2017-08-31T21:34:20.884Z,95.80
2017-08-31T21:36:48.507Z,95.90
2017-08-31T21:39:16.104Z,95.70
2017-08-31T21:41:43.707Z,95.50
2017-08-31T21:44:11.284Z,95.70
2017-08-31T21:46:38.864Z,95.90
2017-08-31T21:49:06.469Z,95.90
2017-08-31T21:51:34.040Z,96.10
2017-08-31T21:54:01.666Z,95.90
2017-08-31T21:56:29.277Z,96.00
2017-08-31T21:58:56.865Z,96.00
2017-08-31T22:01:24.493Z,96.20
2017-08-31T22:03:52.084Z,96.30
2017-08-31T22:06:19.703Z,96.30
2017-08-31T22:08:47.283Z,96.40
2017-08-31T22:11:14.848Z,96.20
2017-08-31T22:13:42.466Z,96.10
2017-08-31T22:16:10.044Z,96.20
2017-08-31T22:18:37.672Z,96.30
2017-08-31T22:21:05.237Z,96.40
2017-08-31T22:23:32.828Z,96.50
2017-08-31T22:26:00.449Z,96.30
2017-08-31T22:28:28.049Z,95.90
2017-08-31T22:30:55.685Z,95.90
2017-08-31T22:33:23.294Z,95.80
2017-08-31T22:35:50.890Z,95.90
2017-08-31T22:38:18.491Z,96.10
2017-08-31T22:40:46.071Z,96.20
2017-08-31T22:43:13.676Z,96.30
2017-08-31T22:45:41.252Z,96.50
2017-08-31T22:48:08.839Z,96.50
2017-08-31T22:50:36.429Z,96.50
2017-08-31T22:53:04.017Z,96.40
2017-08-31T22:55:31.612Z,96.40
2017-08-31T22:58:11.056Z,96.50
2017-08-31T23:00:38.667Z,96.50
2017-08-31T23:03:06.262Z,96.50
2017-08-31T23:05:33.875Z,96.40
2017-08-31T23:08:01.452Z,96.30
2017-08-31T23:10:29.018Z,96.40
2017-08-31T23:12:56.629Z,96.40
2017-08-31T23:15:24.210Z,96.50
2017-08-31T23:17:51.819Z,96.50
2017-08-31T23:20:19.421Z,96.50
2017-08-31T23:22:46.995Z,96.50
2017-08-31T23:25:14.624Z,96.50
2017-08-31T23:27:42.212Z,96.60
2017-08-31T23:30:09.924Z,96.60
2017-08-31T23:32:37.544Z,96.80
2017-08-31T23:35:05.113Z,96.60
2017-08-31T23:37:32.714Z,96.60
2017-08-31T23:40:00.303Z,96.70
2017-08-31T23:42:27.915Z,96.50
2017-08-31T23:44:55.509Z,96.50
2017-08-31T23:47:23.068Z,96.70
2017-08-31T23:49:50.667Z,96.60
2017-08-31T23:52:18.275Z,96.70
2017-08-31T23:54:45.930Z,96.80
2017-08-31T23:57:13.536Z,96.80
2017-08-31T23:59:41.104Z,96.90
